Time;durP1;ratioP1;P1;durP2;ratioP2;P2;SDS_P1;SDS_P2;PMS_P1;PMS_P2;Temp;Humidity;BMP_temperature;BMP_pressure;BME280_temperature;BME280_humidity;BME280_pressure;Samples;Min_cycle;Max_cycle;Signal;HPM_P1;HPM_P2
2021/06/19 00:01:12;;;;;;;5.10;4.40;;;18.50;99.90;;;;;;6322906;28;20530;-70
2021/06/19 00:04:15;;;;;;;3.77;3.47;;;18.50;99.90;;;;;;6322640;28;20265;-70
2021/06/19 00:07:17;;;;;;;5.17;4.67;;;18.50;99.90;;;;;;6320867;28;20202;-70
2021/06/19 00:10:20;;;;;;;4.47;3.87;;;18.50;99.90;;;;;;6322431;28;20546;-70
2021/06/19 00:13:23;;;;;;;5.10;4.40;;;18.40;99.90;;;;;;6320925;28;20178;-70
2021/06/19 00:16:25;;;;;;;5.70;4.33;;;18.30;99.90;;;;;;6304384;28;20226;-70
2021/06/19 00:19:28;;;;;;;5.20;4.70;;;18.30;99.90;;;;;;6322446;28;20178;-70
2021/06/19 00:22:30;;;;;;;5.60;4.20;;;18.30;99.90;;;;;;6321748;28;20240;-70
2021/06/19 00:25:32;;;;;;;6.30;4.57;;;18.30;99.90;;;;;;6322364;28;20193;-70
2021/06/19 00:28:34;;;;;;;6.83;4.10;;;18.20;99.90;;;;;;6321713;28;20200;-70
2021/06/19 00:31:36;;;;;;;5.20;4.63;;;18.20;99.90;;;;;;6322029;28;20560;-70
2021/06/19 00:34:39;;;;;;;5.10;4.70;;;18.20;99.90;;;;;;6320611;28;20204;-70
2021/06/19 00:37:42;;;;;;;5.63;4.53;;;18.20;99.90;;;;;;6321463;28;20249;-70
2021/06/19 00:40:44;;;;;;;4.77;4.37;;;18.10;99.90;;;;;;6320482;28;20274;-70
2021/06/19 00:43:46;;;;;;;5.00;4.50;;;18.10;99.90;;;;;;6321770;28;20196;-70
2021/06/19 00:46:56;;;;;;;5.80;4.90;;;18.00;99.90;;;;;;6321583;28;20182;-70
2021/06/19 00:49:58;;;;;;;6.07;5.03;;;18.00;99.90;;;;;;6320034;28;20186;-70
2021/06/19 00:53:00;;;;;;;4.73;4.13;;;18.00;99.90;;;;;;6321343;28;20645;-70
2021/06/19 00:56:03;;;;;;;4.73;4.33;;;18.00;99.90;;;;;;6320205;28;20226;-70
2021/06/19 00:59:07;;;;;;;4.50;4.20;;;18.00;99.90;;;;;;6320833;28;20200;-70
2021/06/19 01:02:10;;;;;;;4.67;4.10;;;18.00;99.90;;;;;;6319428;28;20182;-70
2021/06/19 01:05:13;;;;;;;6.40;4.67;;;17.90;99.90;;;;;;6319581;28;20192;-70
2021/06/19 01:08:15;;;;;;;4.50;4.20;;;18.00;99.90;;;;;;6321416;28;20194;-70
2021/06/19 01:11:21;;;;;;;5.87;4.80;;;17.90;99.90;;;;;;6321227;28;20218;-70
2021/06/19 01:14:24;;;;;;;4.63;4.20;;;17.90;99.90;;;;;;6320012;28;20205;-70
2021/06/19 01:17:27;;;;;;;4.80;4.40;;;17.80;99.90;;;;;;6320253;28;20582;-70
2021/06/19 01:20:35;;;;;;;5.37;4.87;;;17.80;99.90;;;;;;6320709;28;20513;-70
2021/06/19 01:23:37;;;;;;;6.00;4.80;;;17.80;99.90;;;;;;6319764;28;20186;-70
2021/06/19 01:26:40;;;;;;;5.27;4.43;;;17.80;99.90;;;;;;6319214;28;20205;-70
2021/06/19 01:29:42;;;;;;;4.87;4.47;;;17.70;99.90;;;;;;6319549;28;20213;-70
2021/06/19 01:32:44;;;;;;;5.33;4.83;;;17.70;99.90;;;;;;6320574;28;20190;-70
2021/06/19 01:35:46;;;;;;;4.83;4.43;;;17.70;99.90;;;;;;6318882;28;20212;-70
2021/06/19 01:38:51;;;;;;;5.07;4.57;;;17.70;99.90;;;;;;6319450;28;20182;-70
2021/06/19 01:41:54;;;;;;;5.30;4.80;;;17.60;99.90;;;;;;6319147;28;20190;-70
2021/06/19 01:44:56;;;;;;;5.70;5.10;;;17.60;99.90;;;;;;6320338;28;20307;-70
2021/06/19 01:48:07;;;;;;;5.30;4.83;;;17.60;99.90;;;;;;6319310;28;20315;-70
2021/06/19 01:51:12;;;;;;;8.93;4.80;;;17.60;99.90;;;;;;6318621;28;20178;-70
2021/06/19 01:54:14;;;;;;;5.37;4.80;;;17.60;99.90;;;;;;6318881;28;20212;-70
2021/06/19 01:57:16;;;;;;;5.43;4.93;;;17.60;99.90;;;;;;6318404;28;20234;-70
2021/06/19 02:00:22;;;;;;;4.77;4.33;;;17.50;99.90;;;;;;6318816;28;20559;-70
2021/06/19 02:03:24;;;;;;;5.77;4.40;;;17.50;99.90;;;;;;6320312;28;20174;-70
2021/06/19 02:06:26;;;;;;;5.03;4.13;;;17.50;99.90;;;;;;6319968;28;20212;-70
2021/06/19 02:09:29;;;;;;;6.00;4.70;;;17.40;99.90;;;;;;6319989;28;20186;-70
2021/06/19 02:12:31;;;;;;;5.80;4.97;;;17.40;99.90;;;;;;6318135;28;20256;-70
2021/06/19 02:15:35;;;;;;;6.13;4.87;;;17.40;99.90;;;;;;6319537;28;20205;-70
2021/06/19 02:18:38;;;;;;;5.00;4.50;;;17.40;99.90;;;;;;6319329;28;20663;-70
2021/06/19 02:21:40;;;;;;;5.67;4.57;;;17.30;99.90;;;;;;6318415;28;20194;-70
2021/06/19 02:24:42;;;;;;;5.27;4.87;;;17.30;99.90;;;;;;6319915;28;20562;-70
2021/06/19 02:28:00;;;;;;;6.60;5.60;;;17.30;99.90;;;;;;6318071;28;20219;-70
2021/06/19 02:31:02;;;;;;;5.33;4.83;;;17.30;99.90;;;;;;6319742;28;20505;-70
2021/06/19 02:34:05;;;;;;;5.30;4.80;;;17.20;99.90;;;;;;6317971;28;20198;-70
2021/06/19 02:37:07;;;;;;;6.10;5.50;;;17.10;99.90;;;;;;6318347;28;20725;-70
2021/06/19 02:40:10;;;;;;;5.90;5.07;;;17.10;99.90;;;;;;6318722;28;20198;-70
2021/06/19 02:43:16;;;;;;;6.57;4.77;;;17.10;99.90;;;;;;6319202;28;20540;-71
2021/06/19 02:46:18;;;;;;;5.30;4.90;;;17.10;99.90;;;;;;6319598;28;20220;-71
2021/06/19 02:49:20;;;;;;;5.80;5.30;;;17.10;99.90;;;;;;6318026;28;20186;-71
2021/06/19 02:52:23;;;;;;;6.33;5.23;;;17.00;99.90;;;;;;6319459;28;20194;-71
2021/06/19 02:55:28;;;;;;;5.70;4.77;;;17.00;99.90;;;;;;6300979;28;20198;-71
2021/06/19 02:58:31;;;;;;;5.47;4.93;;;16.90;99.90;;;;;;6318023;28;20576;-71
2021/06/19 03:01:33;;;;;;;6.50;5.60;;;16.90;99.90;;;;;;6319157;28;20205;-71
2021/06/19 03:04:35;;;;;;;5.83;5.30;;;16.90;99.90;;;;;;6317616;28;20657;-71
2021/06/19 03:07:38;;;;;;;6.53;5.53;;;16.90;99.90;;;;;;6319380;28;20319;-71
2021/06/19 03:10:41;;;;;;;5.63;5.13;;;16.90;99.90;;;;;;6318745;28;20225;-71
2021/06/19 03:13:43;;;;;;;6.00;5.40;;;16.90;99.90;;;;;;6318297;28;20558;-71
2021/06/19 03:16:45;;;;;;;6.93;6.13;;;16.90;99.90;;;;;;6317586;28;20221;-71
2021/06/19 03:19:48;;;;;;;5.87;5.30;;;16.90;99.90;;;;;;6317521;28;20201;-71
2021/06/19 03:23:08;;;;;;;5.83;5.33;;;16.90;99.90;;;;;;6319753;28;20227;-71
2021/06/19 03:26:10;;;;;;;5.23;4.70;;;16.90;99.90;;;;;;6320202;28;20174;-71
2021/06/19 03:29:12;;;;;;;6.87;5.23;;;16.90;99.90;;;;;;6323169;28;20194;-71
2021/06/19 03:32:14;;;;;;;5.77;5.17;;;16.90;99.90;;;;;;6321797;28;20196;-71
2021/06/19 03:35:18;;;;;;;5.87;4.93;;;16.90;99.90;;;;;;6304637;28;20198;-71
2021/06/19 03:38:21;;;;;;;7.23;5.50;;;16.90;99.90;;;;;;6321586;28;20704;-71
2021/06/19 03:41:23;;;;;;;5.90;5.30;;;16.90;99.90;;;;;;6322233;28;20202;-71
2021/06/19 03:44:27;;;;;;;5.33;4.93;;;17.00;99.90;;;;;;6322853;28;20184;-71
2021/06/19 03:47:29;;;;;;;5.03;4.53;;;17.00;99.90;;;;;;6321117;28;20201;-71
2021/06/19 03:50:32;;;;;;;6.33;5.80;;;17.00;99.90;;;;;;6321372;28;20546;-71
2021/06/19 03:53:34;;;;;;;7.20;5.03;;;17.10;99.90;;;;;;6304646;28;20198;-71
2021/06/19 03:56:36;;;;;;;5.73;5.23;;;17.20;99.90;;;;;;6322042;28;20210;-71
2021/06/19 03:59:38;;;;;;;5.70;5.20;;;17.20;99.90;;;;;;6321150;28;20201;-71
2021/06/19 04:02:41;;;;;;;5.40;4.90;;;17.20;99.90;;;;;;6321956;28;20182;-71
2021/06/19 04:05:43;;;;;;;5.73;5.23;;;17.30;99.90;;;;;;6321472;28;20205;-71
2021/06/19 04:08:45;;;;;;;5.77;5.27;;;17.20;99.90;;;;;;6321495;28;20195;-70
2021/06/19 04:11:47;;;;;;;5.20;4.80;;;17.20;99.90;;;;;;6321496;28;20586;-70
2021/06/19 04:14:51;;;;;;;6.53;4.97;;;17.30;99.90;;;;;;6320958;28;20524;-70
2021/06/19 04:17:53;;;;;;;5.93;4.90;;;17.30;99.90;;;;;;6320498;28;20205;-70
2021/06/19 04:20:55;;;;;;;5.30;4.90;;;17.30;99.90;;;;;;6303913;28;20190;-70
2021/06/19 04:23:57;;;;;;;8.17;5.77;;;17.30;99.90;;;;;;6320777;28;20676;-70
2021/06/19 04:27:00;;;;;;;6.17;5.67;;;17.40;99.90;;;;;;6321369;28;20182;-70
2021/06/19 04:30:04;;;;;;;5.90;5.40;;;17.40;99.90;;;;;;6320561;28;20270;-70
2021/06/19 04:33:06;;;;;;;6.40;5.80;;;17.40;99.90;;;;;;6321054;28;20256;-70
2021/06/19 04:36:09;;;;;;;5.90;5.40;;;17.50;99.90;;;;;;6321549;28;20201;-70
2021/06/19 04:39:11;;;;;;;5.60;5.13;;;17.60;99.90;;;;;;6302965;28;20194;-70
2021/06/19 04:42:15;;;;;;;5.90;5.40;;;17.60;99.90;;;;;;6321305;28;20269;-70
2021/06/19 04:45:17;;;;;;;5.80;5.30;;;17.70;99.90;;;;;;6321412;28;20216;-70
2021/06/19 04:48:20;;;;;;;6.00;5.50;;;17.80;99.90;;;;;;6321294;28;20205;-70
2021/06/19 04:51:22;;;;;;;6.20;5.67;;;17.80;99.90;;;;;;6319976;28;20194;-70
2021/06/19 04:54:24;;;;;;;5.53;5.13;;;17.80;99.90;;;;;;6320841;28;20186;-70
2021/06/19 04:57:27;;;;;;;5.80;5.30;;;17.90;99.90;;;;;;6319381;28;20216;-70
2021/06/19 05:00:30;;;;;;;5.00;4.60;;;17.90;99.90;;;;;;6321114;28;20182;-70
2021/06/19 05:03:32;;;;;;;5.60;5.00;;;17.90;99.90;;;;;;6319297;28;20194;-70
2021/06/19 05:06:35;;;;;;;6.30;5.70;;;18.00;99.90;;;;;;6320890;28;20235;-70
2021/06/19 05:09:38;;;;;;;7.53;5.87;;;18.00;99.90;;;;;;6320633;28;20186;-70
2021/06/19 05:12:43;;;;;;;6.10;5.60;;;18.10;99.90;;;;;;6321003;28;20222;-70
2021/06/19 05:15:46;;;;;;;6.07;5.57;;;18.10;99.90;;;;;;6320968;28;20667;-70
2021/06/19 05:18:48;;;;;;;5.93;5.43;;;18.20;99.90;;;;;;6320175;28;20212;-70
2021/06/19 05:21:50;;;;;;;5.90;5.40;;;18.20;99.90;;;;;;6319288;28;20291;-70
2021/06/19 05:24:53;;;;;;;5.37;4.87;;;18.30;99.90;;;;;;6319978;28;20189;-70
2021/06/19 05:27:55;;;;;;;6.03;5.53;;;18.30;99.90;;;;;;6319013;28;20210;-70
2021/06/19 05:30:57;;;;;;;6.57;5.23;;;18.40;99.90;;;;;;6318276;28;20194;-70
2021/06/19 05:33:59;;;;;;;6.17;5.57;;;18.50;99.90;;;;;;6318878;28;20272;-70
2021/06/19 05:37:02;;;;;;;5.80;5.30;;;18.60;99.90;;;;;;6318006;28;20218;-70
2021/06/19 05:40:08;;;;;;;5.83;5.20;;;18.60;99.90;;;;;;6316190;28;20592;-70
2021/06/19 05:43:10;;;;;;;7.03;6.40;;;18.70;99.90;;;;;;6316109;28;20604;-70
2021/06/19 05:46:12;;;;;;;6.80;5.37;;;18.80;99.90;;;;;;6316710;28;20182;-71
2021/06/19 05:49:15;;;;;;;6.93;6.23;;;18.90;99.90;;;;;;6316287;28;20598;-71
2021/06/19 05:52:18;;;;;;;5.87;5.47;;;18.90;99.90;;;;;;6318815;28;20185;-71
2021/06/19 05:55:20;;;;;;;5.80;5.30;;;19.00;99.90;;;;;;6318509;28;20198;-73
2021/06/19 05:58:22;;;;;;;6.10;5.60;;;19.00;99.90;;;;;;6319019;28;20569;-71
2021/06/19 06:01:25;;;;;;;8.47;5.40;;;19.00;99.90;;;;;;6317712;28;20593;-71
2021/06/19 06:04:27;;;;;;;6.23;5.50;;;19.20;99.90;;;;;;6318792;28;20700;-71
2021/06/19 06:07:29;;;;;;;5.30;4.80;;;19.20;99.90;;;;;;6318223;28;20296;-71
2021/06/19 06:10:32;;;;;;;5.83;5.33;;;19.30;99.90;;;;;;6317801;28;20203;-71
2021/06/19 06:13:35;;;;;;;5.87;5.27;;;19.50;99.90;;;;;;6317352;28;20557;-71
2021/06/19 06:16:38;;;;;;;5.60;5.20;;;19.50;99.90;;;;;;6317285;28;20206;-71
2021/06/19 06:19:41;;;;;;;5.63;5.13;;;19.70;99.90;;;;;;6317687;28;20198;-71
2021/06/19 06:22:43;;;;;;;6.13;5.63;;;19.80;99.90;;;;;;6316996;28;20265;-71
2021/06/19 06:25:45;;;;;;;5.70;5.30;;;19.90;99.90;;;;;;6319308;28;20182;-71
2021/06/19 06:28:47;;;;;;;5.37;4.93;;;20.10;99.90;;;;;;6317377;28;20194;-71
2021/06/19 06:31:51;;;;;;;5.83;5.33;;;20.30;99.90;;;;;;6317440;28;20185;-73
2021/06/19 06:34:53;;;;;;;6.40;5.90;;;20.50;99.90;;;;;;6318734;28;20190;-71
2021/06/19 06:37:55;;;;;;;5.80;5.30;;;20.70;99.90;;;;;;6292964;28;20210;-71
2021/06/19 06:40:58;;;;;;;6.00;5.40;;;20.90;99.90;;;;;;6308533;28;20195;-71
2021/06/19 06:44:00;;;;;;;5.40;4.90;;;21.10;99.90;;;;;;6292783;28;20590;-71
2021/06/19 06:47:03;;;;;;;6.27;4.70;;;21.30;99.90;;;;;;6309646;28;20675;-71
2021/06/19 06:50:08;;;;;;;5.17;4.77;;;21.60;99.90;;;;;;6317908;28;20187;-71
2021/06/19 06:53:11;;;;;;;6.07;4.40;;;22.00;99.90;;;;;;6317775;28;20261;-71
2021/06/19 06:56:14;;;;;;;4.93;4.53;;;22.30;99.90;;;;;;6309491;28;20199;-71
2021/06/19 06:59:16;;;;;;;4.37;4.03;;;22.70;99.90;;;;;;6314431;28;20559;-71
2021/06/19 07:02:19;;;;;;;4.80;4.40;;;23.00;99.90;;;;;;6321777;28;20188;-71
2021/06/19 07:05:21;;;;;;;5.20;4.70;;;23.40;99.90;;;;;;6322604;28;20190;-71
2021/06/19 07:08:24;;;;;;;4.03;3.73;;;23.70;99.90;;;;;;6322201;28;20193;-71
2021/06/19 07:11:27;;;;;;;4.37;4.00;;;24.00;99.90;;;;;;6322176;28;20233;-71
2021/06/19 07:14:29;;;;;;;4.60;4.20;;;24.30;99.90;;;;;;6323469;28;20328;-71
2021/06/19 07:17:31;;;;;;;4.47;4.17;;;24.60;99.90;;;;;;6322305;28;20592;-71
2021/06/19 07:20:33;;;;;;;4.83;4.37;;;24.90;99.90;;;;;;6323631;28;20190;-71
2021/06/19 07:23:35;;;;;;;4.67;4.27;;;25.30;99.90;;;;;;6322147;28;20331;-71
2021/06/19 07:26:38;;;;;;;5.47;4.40;;;25.60;99.90;;;;;;6323616;28;20194;-71
2021/06/19 07:29:41;;;;;;;6.23;4.00;;;25.90;99.90;;;;;;6323010;28;20194;-71
2021/06/19 07:32:43;;;;;;;4.63;4.22;;;26.20;99.80;;;;;;6321963;28;20200;-71
2021/06/19 07:35:45;;;;;;;4.95;4.47;;;26.50;99.00;;;;;;6321907;28;20200;-71
2021/06/19 07:38:47;;;;;;;4.72;4.25;;;26.80;98.20;;;;;;6321328;28;20213;-71
2021/06/19 07:41:50;;;;;;;4.93;4.53;;;27.10;97.30;;;;;;6323095;28;20182;-71
2021/06/19 07:44:52;;;;;;;5.15;4.68;;;27.50;95.50;;;;;;6321278;28;20204;-71
2021/06/19 07:47:54;;;;;;;4.55;4.25;;;27.70;94.40;;;;;;6323019;28;20271;-71
2021/06/19 07:50:57;;;;;;;4.50;4.10;;;27.90;94.40;;;;;;6321730;28;20190;-71
2021/06/19 07:54:00;;;;;;;4.55;4.10;;;28.20;94.00;;;;;;6322213;28;20190;-71
2021/06/19 07:57:05;;;;;;;5.03;4.55;;;28.50;93.10;;;;;;6322674;28;20212;-71
2021/06/19 08:00:09;;;;;;;4.90;4.50;;;28.60;89.70;;;;;;6320965;28;20630;-71
2021/06/19 08:03:11;;;;;;;4.40;4.00;;;28.80;87.80;;;;;;6323003;28;20182;-71
2021/06/19 08:06:13;;;;;;;4.70;4.20;;;29.10;89.00;;;;;;6321160;28;20834;-71
2021/06/19 08:09:16;;;;;;;5.05;4.65;;;29.30;86.10;;;;;;6322607;28;20178;-71
2021/06/19 08:12:18;;;;;;;4.30;4.00;;;29.50;82.10;;;;;;6320651;28;20351;-71
2021/06/19 08:15:21;;;;;;;5.25;4.75;;;29.70;83.10;;;;;;6321889;28;20200;-71
2021/06/19 08:18:24;;;;;;;5.15;4.70;;;29.80;79.40;;;;;;6320927;28;20286;-71
2021/06/19 08:21:26;;;;;;;5.07;4.60;;;29.90;78.70;;;;;;6321684;28;20186;-71
2021/06/19 08:24:28;;;;;;;6.07;4.93;;;30.00;74.20;;;;;;6322147;28;20197;-71
2021/06/19 08:27:31;;;;;;;7.18;4.60;;;30.30;73.10;;;;;;6320763;28;20639;-71
2021/06/19 08:30:33;;;;;;;4.53;4.13;;;30.50;73.40;;;;;;6320363;28;20194;-71
2021/06/19 08:33:36;;;;;;;4.65;4.25;;;30.70;74.70;;;;;;6320545;28;20233;-71
2021/06/19 08:36:38;;;;;;;6.25;5.25;;;31.10;74.20;;;;;;6320020;28;20208;-71
2021/06/19 08:39:41;;;;;;;5.22;4.72;;;31.30;70.20;;;;;;6321965;28;20513;-71
2021/06/19 08:42:43;;;;;;;5.47;4.88;;;31.40;67.20;;;;;;6321703;28;20198;-71
2021/06/19 08:45:48;;;;;;;4.93;4.20;;;31.60;68.20;;;;;;6320191;28;20186;-71
2021/06/19 08:48:52;;;;;;;4.80;4.40;;;32.00;69.40;;;;;;6321819;28;20186;-71
2021/06/19 08:51:58;;;;;;;5.30;4.88;;;32.30;68.90;;;;;;6321046;28;20653;-71
2021/06/19 08:55:00;;;;;;;5.50;4.85;;;32.60;65.40;;;;;;6320470;28;20711;-71
2021/06/19 08:58:02;;;;;;;6.15;5.55;;;32.80;64.40;;;;;;6319611;28;20212;-71
2021/06/19 09:01:05;;;;;;;5.93;5.32;;;32.70;59.40;;;;;;6321500;28;20186;-71
2021/06/19 09:04:09;;;;;;;5.68;5.05;;;32.60;59.50;;;;;;6319660;28;20291;-71
2021/06/19 09:07:44;;;;;;;5.13;4.72;;;32.50;58.90;;;;;;6321221;28;20186;-71
2021/06/19 09:10:47;;;;;;;6.32;4.47;;;32.60;59.60;;;;;;6320889;28;20241;-71
2021/06/19 09:14:02;;;;;;;5.55;5.05;;;33.00;61.80;;;;;;6319145;28;20560;-71
2021/06/19 09:17:07;;;;;;;5.15;4.75;;;33.20;58.50;;;;;;6319706;28;20218;-71
2021/06/19 09:20:10;;;;;;;5.30;4.80;;;33.40;57.90;;;;;;6321081;28;20181;-71
2021/06/19 09:23:13;;;;;;;4.65;4.35;;;33.70;58.80;;;;;;6302082;28;20645;-71
2021/06/19 09:26:23;;;;;;;6.78;4.95;;;34.20;58.90;;;;;;6320667;28;20197;-71
2021/06/19 09:29:29;;;;;;;6.72;5.80;;;34.20;55.10;;;;;;6319047;28;20222;-71
2021/06/19 09:32:31;;;;;;;6.55;5.90;;;33.70;54.50;;;;;;6320666;28;20178;-71
2021/06/19 09:35:41;;;;;;;5.57;5.07;;;33.40;54.40;;;;;;6302043;28;20657;-71
2021/06/19 09:39:01;;;;;;;6.18;5.57;;;33.10;55.80;;;;;;6320494;28;20543;-71
2021/06/19 09:42:07;;;;;;;7.13;5.80;;;33.30;55.70;;;;;;6319285;28;20539;-71
2021/06/19 09:45:18;;;;;;;5.85;5.35;;;33.60;55.00;;;;;;6301805;28;20273;-71
2021/06/19 09:48:26;;;;;;;6.00;5.60;;;33.70;54.60;;;;;;6320227;28;20178;-71
2021/06/19 09:51:28;;;;;;;5.50;5.05;;;33.90;53.50;;;;;;6319781;28;20190;-71
2021/06/19 09:54:40;;;;;;;5.57;5.07;;;34.30;55.00;;;;;;6320082;28;20193;-71
2021/06/19 09:57:45;;;;;;;5.65;5.25;;;34.30;53.10;;;;;;6320136;28;20206;-71
2021/06/19 10:00:47;;;;;;;5.13;4.63;;;34.80;53.50;;;;;;6320193;28;20194;-71
2021/06/19 10:03:57;;;;;;;5.88;4.80;;;35.30;54.30;;;;;;6318500;28;20228;-71
2021/06/19 10:07:00;;;;;;;5.82;5.28;;;35.70;53.60;;;;;;6318429;28;20187;-71
2021/06/19 10:10:08;;;;;;;5.30;4.80;;;36.20;52.70;;;;;;6318585;28;20223;-71
2021/06/19 10:13:12;;;;;;;5.55;4.60;;;36.50;52.70;;;;;;6317859;28;20228;-71
2021/06/19 10:16:17;;;;;;;6.20;5.38;;;36.90;51.80;;;;;;6318463;28;20201;-71
2021/06/19 10:19:21;;;;;;;6.13;5.53;;;36.70;50.00;;;;;;6318518;28;20221;-71
2021/06/19 10:22:32;;;;;;;6.82;5.28;;;36.50;49.40;;;;;;6318617;28;20182;-71
2021/06/19 10:25:36;;;;;;;5.50;5.13;;;36.30;48.40;;;;;;6318366;28;20202;-71
2021/06/19 10:28:45;;;;;;;5.65;5.25;;;36.40;49.30;;;;;;6319288;28;20202;-71
2021/06/19 10:31:51;;;;;;;5.35;4.95;;;36.80;50.10;;;;;;6318273;28;20599;-71
2021/06/19 10:34:53;;;;;;;5.88;5.40;;;37.30;49.80;;;;;;6318858;28;20201;-71
2021/06/19 10:37:56;;;;;;;6.13;5.53;;;37.60;48.50;;;;;;6323655;28;20233;-71
2021/06/19 10:41:00;;;;;;;5.60;5.10;;;37.50;47.20;;;;;;6324886;28;20618;-71
2021/06/19 10:44:03;;;;;;;7.43;4.97;;;37.00;47.00;;;;;;6324386;28;20182;-71
2021/06/19 10:47:05;;;;;;;5.03;4.70;;;36.70;48.00;;;;;;6324532;28;20185;-71
2021/06/19 10:50:22;;;;;;;5.43;5.03;;;36.90;48.70;;;;;;6324387;28;20178;-71
2021/06/19 10:53:24;;;;;;;6.70;5.45;;;37.30;46.80;;;;;;6323181;28;20201;-71
2021/06/19 10:56:52;;;;;;;6.20;5.18;;;37.50;46.70;;;;;;6322955;28;20182;-71
2021/06/19 11:00:26;;;;;;;5.60;5.15;;;38.00;46.90;;;;;;6293078;28;20318;-71
2021/06/19 11:03:44;;;;;;;5.72;5.18;;;37.90;47.40;;;;;;6299067;28;20198;-71
2021/06/19 11:06:46;;;;;;;6.65;5.78;;;37.70;46.00;;;;;;6314424;28;20191;-71
2021/06/19 11:09:49;;;;;;;6.20;5.70;;;37.40;45.80;;;;;;6297692;28;20190;-71
2021/06/19 11:12:52;;;;;;;6.35;5.60;;;37.30;46.20;;;;;;6296950;28;20275;-71
2021/06/19 11:15:55;;;;;;;5.68;5.25;;;37.50;46.90;;;;;;6297630;28;20191;-71
2021/06/19 11:18:58;;;;;;;6.82;5.40;;;37.80;46.60;;;;;;6298367;28;20210;-71
2021/06/19 11:22:26;;;;;;;6.50;5.90;;;38.00;45.80;;;;;;6297476;28;20213;-71
2021/06/19 11:25:29;;;;;;;6.22;5.82;;;38.30;45.90;;;;;;6295435;28;20206;-71
2021/06/19 11:28:32;;;;;;;6.53;5.93;;;38.10;46.00;;;;;;6312275;28;20243;-72
2021/06/19 11:31:40;;;;;;;6.85;6.28;;;38.10;45.40;;;;;;6322362;28;20696;-72
2021/06/19 11:34:42;;;;;;;7.45;6.32;;;38.00;44.50;;;;;;6322895;28;20198;-72
2021/06/19 11:37:57;;;;;;;6.80;6.30;;;37.90;46.20;;;;;;6323151;28;20210;-72
2021/06/19 11:41:10;;;;;;;7.28;5.80;;;37.90;45.40;;;;;;6322980;28;20179;-72
2021/06/19 11:44:15;;;;;;;6.25;5.70;;;38.10;44.80;;;;;;6321737;28;20257;-71
2021/06/19 11:47:17;;;;;;;6.07;5.68;;;38.60;45.10;;;;;;6320946;28;20300;-71
2021/06/19 11:50:20;;;;;;;6.13;5.53;;;39.00;44.30;;;;;;6321218;28;20190;-71
2021/06/19 11:53:31;;;;;;;6.15;5.65;;;39.00;44.60;;;;;;6321635;28;20542;-71
2021/06/19 11:56:33;;;;;;;6.70;6.10;;;38.80;42.90;;;;;;6321700;28;20178;-71
2021/06/19 11:59:36;;;;;;;5.78;5.18;;;38.50;42.70;;;;;;6321512;28;20218;-71
2021/06/19 12:02:39;;;;;;;6.00;5.45;;;38.30;43.20;;;;;;6321345;28;20262;-71
2021/06/19 12:05:46;;;;;;;5.55;5.15;;;38.40;41.40;;;;;;6322338;28;20192;-71
2021/06/19 12:08:48;;;;;;;6.13;5.63;;;38.40;42.30;;;;;;6322476;28;20179;-71
2021/06/19 12:11:54;;;;;;;5.45;4.95;;;38.50;42.90;;;;;;6320991;28;20608;-71
2021/06/19 12:14:57;;;;;;;6.30;5.72;;;38.30;43.60;;;;;;6321625;28;20232;-71
2021/06/19 12:18:00;;;;;;;5.20;4.80;;;38.30;44.50;;;;;;6320834;28;20214;-71
2021/06/19 12:21:11;;;;;;;4.70;4.28;;;38.60;44.50;;;;;;6322445;28;20260;-71
2021/06/19 12:24:41;;;;;;;5.45;4.95;;;39.20;42.70;;;;;;6322830;28;20623;-71
2021/06/19 12:27:43;;;;;;;5.07;4.65;;;39.30;40.30;;;;;;6321297;28;20182;-71
2021/06/19 12:30:56;;;;;;;4.80;4.40;;;39.10;41.30;;;;;;6320963;28;20190;-71
2021/06/19 12:34:02;;;;;;;4.90;4.50;;;39.30;42.60;;;;;;6321853;28;20179;-71
2021/06/19 12:37:04;;;;;;;4.85;4.38;;;39.60;40.80;;;;;;6320861;28;20674;-71
2021/06/19 12:40:12;;;;;;;4.82;4.43;;;39.90;39.20;;;;;;6320206;28;20209;-71
2021/06/19 12:43:16;;;;;;;4.60;4.25;;;40.30;38.60;;;;;;6322023;28;20181;-71
2021/06/19 12:46:20;;;;;;;4.35;3.95;;;40.60;38.60;;;;;;6321768;28;20188;-71
2021/06/19 12:49:23;;;;;;;5.13;3.70;;;40.90;37.40;;;;;;6320261;28;20411;-72
2021/06/19 12:52:25;;;;;;;4.65;4.25;;;41.00;37.50;;;;;;6320136;28;20197;-71
2021/06/19 12:55:30;;;;;;;4.00;3.70;;;41.10;36.20;;;;;;6320998;28;20182;-71
2021/06/19 12:58:41;;;;;;;4.22;3.72;;;40.80;36.10;;;;;;6321457;28;20202;-71
2021/06/19 13:02:00;;;;;;;4.05;3.75;;;40.80;37.30;;;;;;6320107;28;20279;-71
2021/06/19 13:05:16;;;;;;;4.25;3.78;;;40.70;36.60;;;;;;6319021;28;20528;-71
2021/06/19 13:08:21;;;;;;;3.67;3.42;;;41.00;36.50;;;;;;6321363;28;20179;-71
2021/06/19 13:11:27;;;;;;;3.72;3.30;;;41.10;36.00;;;;;;6320391;28;20229;-71
2021/06/19 13:14:29;;;;;;;3.30;3.00;;;41.40;34.70;;;;;;6319565;28;20197;-71
2021/06/19 13:17:42;;;;;;;4.70;3.92;;;41.60;34.80;;;;;;6320629;28;20197;-71
2021/06/19 13:20:44;;;;;;;3.92;3.63;;;41.30;35.20;;;;;;6319402;28;20795;-71
2021/06/19 13:23:46;;;;;;;4.20;3.42;;;40.40;36.10;;;;;;6319178;28;20263;-71
2021/06/19 13:26:51;;;;;;;3.88;3.50;;;40.00;35.60;;;;;;6319954;28;20182;-71
2021/06/19 13:29:58;;;;;;;3.40;3.10;;;40.10;34.30;;;;;;6295914;28;20195;-71
2021/06/19 13:33:01;;;;;;;3.22;3.03;;;40.40;33.70;;;;;;6310500;28;20645;-71
2021/06/19 13:36:21;;;;;;;3.10;2.90;;;41.00;33.60;;;;;;6310937;28;20700;-71
2021/06/19 13:39:29;;;;;;;3.35;3.05;;;41.70;33.20;;;;;;6310350;28;20195;-71
2021/06/19 13:42:32;;;;;;;3.85;3.30;;;42.30;31.90;;;;;;6294056;28;20667;-71
2021/06/19 13:45:35;;;;;;;4.32;3.10;;;42.80;32.70;;;;;;6293806;28;20203;-71
2021/06/19 13:48:37;;;;;;;3.50;3.20;;;43.20;32.00;;;;;;6310462;28;20207;-72
2021/06/19 13:51:39;;;;;;;2.72;2.53;;;43.40;31.40;;;;;;6293792;28;20677;-71
2021/06/19 13:54:43;;;;;;;4.57;2.67;;;43.60;31.10;;;;;;6294349;28;20190;-71
2021/06/19 13:57:45;;;;;;;4.18;2.90;;;43.90;31.00;;;;;;6303335;28;20190;-71
2021/06/19 14:00:47;;;;;;;2.80;2.60;;;44.30;30.00;;;;;;6318836;28;20542;-71
2021/06/19 14:03:50;;;;;;;3.15;2.95;;;44.50;29.60;;;;;;6319378;28;20182;-71
2021/06/19 14:06:54;;;;;;;3.72;3.30;;;45.00;30.00;;;;;;6318799;28;20559;-71
2021/06/19 14:09:56;;;;;;;4.97;3.30;;;44.70;30.20;;;;;;6317544;28;20209;-71
2021/06/19 14:12:59;;;;;;;3.75;3.42;;;44.50;30.50;;;;;;6320116;28;20217;-71
2021/06/19 14:16:03;;;;;;;3.50;3.20;;;44.70;30.90;;;;;;6304493;28;20197;-71
2021/06/19 14:19:06;;;;;;;3.38;3.17;;;44.80;29.80;;;;;;6319018;28;20495;-71
2021/06/19 14:22:08;;;;;;;3.65;3.35;;;45.10;29.40;;;;;;6319130;28;20216;-71
2021/06/19 14:25:11;;;;;;;3.50;3.30;;;45.40;30.20;;;;;;6316272;28;20194;-71
2021/06/19 14:28:13;;;;;;;4.50;3.60;;;45.60;29.60;;;;;;6319482;28;20201;-71
2021/06/19 14:31:15;;;;;;;3.75;3.47;;;45.90;29.90;;;;;;6317925;28;20206;-71
2021/06/19 14:34:18;;;;;;;3.70;3.40;;;46.10;29.50;;;;;;6319793;28;20197;-71
2021/06/19 14:37:20;;;;;;;3.85;3.50;;;46.40;29.20;;;;;;6317777;28;20233;-71
2021/06/19 14:40:23;;;;;;;4.35;4.03;;;46.80;29.20;;;;;;6318757;28;20289;-71
2021/06/19 14:43:25;;;;;;;4.25;3.90;;;46.90;29.40;;;;;;6317914;28;20560;-71
2021/06/19 14:46:27;;;;;;;4.75;3.78;;;46.70;28.80;;;;;;6317510;28;20186;-71
2021/06/19 14:49:30;;;;;;;4.13;3.72;;;46.50;29.20;;;;;;6319870;28;20604;-71
2021/06/19 14:52:32;;;;;;;4.10;3.70;;;46.70;29.00;;;;;;6318891;28;20522;-71
2021/06/19 14:55:37;;;;;;;4.45;4.15;;;47.10;29.10;;;;;;6318719;28;20194;-71
2021/06/19 14:58:39;;;;;;;5.50;3.78;;;46.90;28.30;;;;;;6317557;28;20236;-71
2021/06/19 15:01:42;;;;;;;4.60;3.67;;;47.00;28.10;;;;;;6317362;28;20284;-71
2021/06/19 15:04:44;;;;;;;4.25;3.85;;;47.20;28.20;;;;;;6317724;28;20189;-71
2021/06/19 15:07:46;;;;;;;4.13;3.83;;;47.40;27.90;;;;;;6319118;28;20232;-71
2021/06/19 15:10:49;;;;;;;4.00;3.70;;;47.60;28.00;;;;;;6318382;28;20229;-71
2021/06/19 15:13:51;;;;;;;4.22;3.35;;;47.70;28.90;;;;;;6317938;28;20181;-71
2021/06/19 15:16:53;;;;;;;4.22;3.92;;;47.60;28.60;;;;;;6316926;28;20186;-71
2021/06/19 15:19:55;;;;;;;4.82;4.40;;;47.20;29.40;;;;;;6318826;28;20236;-70
2021/06/19 15:22:59;;;;;;;4.47;4.18;;;46.60;29.40;;;;;;6320223;28;20182;-70
2021/06/19 15:26:02;;;;;;;6.18;4.18;;;46.30;29.60;;;;;;6323273;28;20182;-70
2021/06/19 15:29:04;;;;;;;4.47;4.07;;;46.00;29.70;;;;;;6323289;28;20200;-71
2021/06/19 15:32:07;;;;;;;4.45;4.05;;;45.50;31.50;;;;;;6322906;28;20200;-71
2021/06/19 15:35:10;;;;;;;4.40;4.03;;;45.30;31.90;;;;;;6322860;28;20626;-71
2021/06/19 15:38:13;;;;;;;5.15;4.03;;;45.30;31.60;;;;;;6322532;28;20294;-71
2021/06/19 15:41:16;;;;;;;4.10;3.80;;;45.40;31.70;;;;;;6321486;28;20674;-71
2021/06/19 15:44:18;;;;;;;5.15;4.75;;;45.50;32.90;;;;;;6322275;28;20182;-71
2021/06/19 15:47:21;;;;;;;6.28;4.30;;;45.70;30.90;;;;;;6323233;28;20189;-71
2021/06/19 15:50:24;;;;;;;4.80;4.43;;;45.70;30.20;;;;;;6324210;28;20197;-71
2021/06/19 15:53:26;;;;;;;4.45;4.10;;;45.70;31.30;;;;;;6322680;28;20186;-71
2021/06/19 15:56:29;;;;;;;4.47;4.13;;;45.70;30.10;;;;;;6324259;28;20186;-71
2021/06/19 15:59:31;;;;;;;4.13;3.83;;;45.70;31.60;;;;;;6322422;28;20218;-71